Time;durP1;ratioP1;P1;durP2;ratioP2;P2;SDS_P1;SDS_P2;PMS_P1;PMS_P2;Temp;Humidity;BMP_temperature;BMP_pressure;BME280_temperature;BME280_humidity;BME280_pressure;Samples;Min_cycle;Max_cycle;Signal;HPM_P1;HPM_P2
2023/08/26 00:01:57;;;;;;;9.02;3.17;;;;;;;17.09;84.25;100973.81;6092252;19;20029;-74
2023/08/26 00:04:11;;;;;;;8.40;3.20;;;;;;;17.18;83.86;100967.03;6093985;19;20003;-75
2023/08/26 00:06:18;;;;;;;7.47;2.83;;;;;;;17.14;84.20;100962.84;6090177;19;20017;-74
2023/08/26 00:08:25;;;;;;;6.18;3.20;;;;;;;17.08;84.61;100964.97;6095139;19;20385;-74
2023/08/26 00:10:31;;;;;;;4.72;2.75;;;;;;;17.17;85.05;100962.66;6092038;19;20035;-73
2023/08/26 00:12:36;;;;;;;5.95;3.13;;;;;;;17.12;85.89;100970.94;6065120;19;20010;-75
2023/08/26 00:14:41;;;;;;;6.18;3.22;;;;;;;17.09;86.29;100961.38;6092732;19;20018;-72
2023/08/26 00:16:46;;;;;;;10.52;3.70;;;;;;;17.12;85.85;100957.66;6092873;19;20002;-72
2023/08/26 00:18:59;;;;;;;14.35;3.60;;;;;;;16.99;86.11;100952.31;6072273;19;20027;-71
2023/08/26 00:21:10;;;;;;;8.13;2.60;;;;;;;16.95;86.24;100950.78;6090600;19;20006;-73
2023/08/26 00:23:18;;;;;;;6.10;3.20;;;;;;;16.92;86.99;100953.66;6084365;19;20015;-72
2023/08/26 00:25:24;;;;;;;8.85;3.13;;;;;;;16.81;87.19;100946.38;6087039;19;20023;-73
2023/08/26 00:27:32;;;;;;;4.55;2.53;;;;;;;16.81;87.20;100957.00;6081145;19;20653;-71
2023/08/26 00:29:37;;;;;;;5.35;2.88;;;;;;;16.85;87.63;100958.53;6080015;19;20009;-72
2023/08/26 00:31:43;;;;;;;9.57;4.57;;;;;;;16.82;87.27;100950.72;6081206;19;20483;-72
2023/08/26 00:33:49;;;;;;;9.38;2.72;;;;;;;16.85;87.49;100952.34;6078511;19;20042;-72
2023/08/26 00:35:59;;;;;;;4.72;2.47;;;;;;;16.76;87.36;100948.44;6093548;19;20383;-72
2023/08/26 00:38:04;;;;;;;6.00;2.83;;;;;;;16.73;87.37;100946.00;6082305;19;20364;-73
2023/08/26 00:40:17;;;;;;;5.38;2.50;;;;;;;16.67;87.85;100946.41;6079862;19;20417;-72
2023/08/26 00:42:23;;;;;;;8.65;2.75;;;;;;;16.68;87.31;100940.13;6092228;19;20080;-72
2023/08/26 00:44:34;;;;;;;6.00;2.50;;;;;;;16.55;87.78;100940.06;6090277;19;20013;-72
2023/08/26 00:46:39;;;;;;;6.95;2.53;;;;;;;16.47;87.93;100947.66;6086386;19;20235;-74
2023/08/26 00:48:45;;;;;;;7.72;2.63;;;;;;;16.44;88.29;100948.72;6084976;19;20018;-72
2023/08/26 00:50:52;;;;;;;6.13;2.63;;;;;;;16.30;88.77;100946.09;6093297;19;20489;-73
2023/08/26 00:53:01;;;;;;;5.47;2.72;;;;;;;16.33;88.83;100940.59;6065400;19;20011;-71
2023/08/26 00:55:11;;;;;;;5.40;2.30;;;;;;;16.29;89.00;100931.13;6060668;19;20086;-74
2023/08/26 00:57:19;;;;;;;5.68;2.30;;;;;;;16.15;89.43;100934.63;6077355;19;20014;-75
2023/08/26 00:59:25;;;;;;;7.80;2.50;;;;;;;16.13;89.67;100928.56;6083263;19;20440;-75
2023/08/26 01:01:32;;;;;;;7.30;2.92;;;;;;;16.06;90.09;100929.91;6089665;19;20456;-73
2023/08/26 01:03:39;;;;;;;3.03;2.10;;;;;;;16.07;90.02;100941.38;6061782;19;20010;-74
2023/08/26 01:05:44;;;;;;;4.00;2.38;;;;;;;15.99;90.39;100937.38;6090521;19;20007;-73
2023/08/26 01:07:52;;;;;;;6.65;2.60;;;;;;;15.95;90.43;100935.00;6083041;19;20011;-73
2023/08/26 01:10:01;;;;;;;7.78;2.70;;;;;;;15.80;91.84;100929.72;6075527;19;20443;-72
2023/08/26 01:12:18;;;;;;;4.07;2.67;;;;;;;15.83;91.60;100930.47;6094232;19;20494;-75
2023/08/26 01:14:32;;;;;;;9.32;2.55;;;;;;;15.83;91.40;100930.47;6069319;19;20485;-74
2023/08/26 01:16:40;;;;;;;8.40;3.58;;;;;;;15.87;91.24;100926.69;6091200;19;20255;-74
2023/08/26 01:18:48;;;;;;;5.30;2.80;;;;;;;15.69;92.36;100924.22;6092817;19;20003;-75
2023/08/26 01:20:55;;;;;;;6.82;2.88;;;;;;;15.63;92.88;100932.50;6065417;19;20010;-74
2023/08/26 01:23:02;;;;;;;8.38;2.75;;;;;;;15.64;92.60;100930.69;6065239;19;20052;-73
2023/08/26 01:25:11;;;;;;;6.35;2.78;;;;;;;15.74;92.44;100922.13;6070211;19;20002;-74
2023/08/26 01:27:16;;;;;;;5.43;2.60;;;;;;;15.61;92.67;100920.28;6068043;19;20013;-74
2023/08/26 01:29:19;;;;;;;5.78;2.65;;;;;;;15.67;92.61;100925.22;6065744;19;20104;-74
2023/08/26 01:31:25;;;;;;;8.23;2.50;;;;;;;15.64;92.81;100926.28;6074685;19;20014;-73
2023/08/26 01:33:36;;;;;;;13.07;3.00;;;;;;;15.61;93.10;100925.59;6093706;19;20011;-73
2023/08/26 01:35:46;;;;;;;9.38;2.80;;;;;;;15.61;92.93;100934.38;6070658;19;20010;-74
2023/08/26 01:37:54;;;;;;;9.15;2.58;;;;;;;15.54;93.52;100938.34;6072374;19;20478;-74
2023/08/26 01:40:06;;;;;;;6.88;2.80;;;;;;;15.64;92.94;100930.69;6070519;19;20445;-73
2023/08/26 01:42:15;;;;;;;7.18;2.72;;;;;;;15.68;93.05;100932.22;6086672;19;20006;-74
2023/08/26 01:44:21;;;;;;;5.85;2.50;;;;;;;15.61;93.26;100921.13;6081409;19;20035;-75
2023/08/26 01:46:37;;;;;;;9.82;2.78;;;;;;;15.67;93.12;100919.94;6081896;19;20035;-74
2023/08/26 01:48:42;;;;;;;6.90;2.92;;;;;;;15.63;92.93;100929.00;6058389;19;20018;-74
2023/08/26 01:50:48;;;;;;;7.38;2.80;;;;;;;15.64;93.20;100925.38;6084378;19;20034;-75
2023/08/26 01:52:56;;;;;;;4.82;2.88;;;;;;;15.68;93.41;100922.47;6074069;19;21224;-74
2023/08/26 01:55:01;;;;;;;7.43;2.90;;;;;;;15.68;93.44;100924.28;6075703;19;20357;-74
2023/08/26 01:57:07;;;;;;;6.45;2.67;;;;;;;15.67;93.45;100934.03;6076658;19;20006;-73
2023/08/26 01:59:17;;;;;;;6.43;2.97;;;;;;;15.67;94.49;100915.47;6073022;19;20002;-74
2023/08/26 02:01:20;;;;;;;9.05;3.25;;;;;;;15.67;94.56;100922.59;6084712;19;20018;-75
2023/08/26 02:03:28;;;;;;;;;;;;;;;15.71;95.81;100922.31;6064271;19;20011;-74
2023/08/26 02:05:36;;;;;;;5.15;2.60;;;;;;;15.70;96.15;100919.78;6081422;19;19907;-74
2023/08/26 02:07:38;;;;;;;7.63;2.95;;;;;;;15.60;96.83;100924.72;6074444;19;20003;-74
2023/08/26 02:09:43;;;;;;;7.05;3.33;;;;;;;15.62;98.11;100919.34;6067768;19;20039;-75
2023/08/26 02:11:48;;;;;;;6.95;2.90;;;;;;;15.63;98.02;100923.69;6073946;19;20010;-74
2023/08/26 02:13:53;;;;;;;10.77;3.45;;;;;;;15.63;99.73;100919.25;6069643;19;20653;-74
2023/08/26 02:16:05;;;;;;;10.15;3.25;;;;;;;15.64;98.96;100922.75;6084084;19;20006;-74
2023/08/26 02:18:11;;;;;;;9.20;3.10;;;;;;;15.59;98.30;100923.88;6088847;19;20070;-74
2023/08/26 02:20:16;;;;;;;7.25;2.92;;;;;;;15.58;97.96;100910.72;6074937;19;20010;-73
2023/08/26 02:22:24;;;;;;;8.13;3.08;;;;;;;15.58;97.65;100927.47;6076893;19;20007;-75
2023/08/26 02:24:32;;;;;;;7.22;2.72;;;;;;;15.61;97.38;100922.94;6083487;19;20459;-75
2023/08/26 02:26:39;;;;;;;7.07;3.00;;;;;;;15.56;97.88;100913.47;6067788;19;20011;-74
2023/08/26 02:28:44;;;;;;;6.50;3.38;;;;;;;15.52;97.30;100925.19;6078931;19;20158;-74
2023/08/26 02:30:50;;;;;;;8.60;3.15;;;;;;;15.50;97.96;100919.13;6088145;19;20010;-74
2023/08/26 02:32:59;;;;;;;9.02;3.33;;;;;;;15.56;97.21;100924.06;6081450;19;20089;-73
2023/08/26 02:35:07;;;;;;;10.07;2.72;;;;;;;15.60;96.95;100919.44;6090626;19;20618;-73
2023/08/26 02:37:12;;;;;;;6.78;3.05;;;;;;;15.60;97.09;100919.44;6080105;19;20758;-73
2023/08/26 02:39:17;;;;;;;7.72;3.08;;;;;;;15.57;96.98;100923.13;6068480;19;20028;-74
2023/08/26 02:41:22;;;;;;;5.72;2.63;;;;;;;15.53;97.06;100918.97;6095920;19;20011;-74
2023/08/26 02:43:29;;;;;;;6.28;2.67;;;;;;;15.50;97.12;100915.63;6082962;19;20110;-73
2023/08/26 02:45:35;;;;;;;7.35;2.95;;;;;;;15.43;97.48;100922.22;6076351;19;21154;-74
2023/08/26 02:47:40;;;;;;;7.93;3.05;;;;;;;15.46;97.32;100916.78;6078040;19;20657;-74
2023/08/26 02:49:47;;;;;;;10.68;3.40;;;;;;;15.37;96.97;100923.44;6079991;19;20010;-73
2023/08/26 02:51:53;;;;;;;7.57;3.05;;;;;;;15.39;97.22;100915.44;6077565;19;20161;-75
2023/08/26 02:54:00;;;;;;;6.75;3.20;;;;;;;15.42;97.03;100912.59;6075966;19;20011;-73
2023/08/26 02:56:05;;;;;;;9.70;2.85;;;;;;;15.42;96.93;100915.25;6070431;19;20788;-74
2023/08/26 02:58:07;;;;;;;12.02;3.47;;;;;;;15.36;97.08;100919.09;6075536;19;20003;-74
2023/08/26 03:00:13;;;;;;;7.07;3.15;;;;;;;15.36;96.81;100924.41;6081728;19;20059;-74
2023/08/26 03:02:24;;;;;;;5.40;2.83;;;;;;;15.37;96.63;100921.66;6075486;19;20002;-73
2023/08/26 03:04:30;;;;;;;6.32;2.70;;;;;;;15.40;96.89;100925.06;6078484;19;20027;-73
2023/08/26 03:06:39;;;;;;;6.50;3.08;;;;;;;15.34;96.69;100919.19;6099729;19;21128;-74
2023/08/26 03:08:44;;;;;;;9.93;3.25;;;;;;;15.31;96.94;100914.06;6098539;19;20006;-74
2023/08/26 03:11:01;;;;;;;9.02;3.08;;;;;;;15.33;97.22;100917.50;6089707;19;20523;-74
2023/08/26 03:13:07;;;;;;;11.10;3.40;;;;;;;15.32;96.40;100921.09;6093854;19;21240;-72
2023/08/26 03:15:12;;;;;;;7.45;2.83;;;;;;;15.29;97.29;100923.06;6094639;19;20080;-73
2023/08/26 03:17:17;;;;;;;9.10;3.05;;;;;;;15.25;97.70;100919.75;6094316;19;20268;-72
2023/08/26 03:19:22;;;;;;;9.30;3.10;;;;;;;15.30;97.11;100922.13;6078917;19;20014;-71
2023/08/26 03:21:29;;;;;;;7.60;3.10;;;;;;;15.30;97.49;100922.97;6094470;19;20007;-72
2023/08/26 03:23:40;;;;;;;9.48;3.10;;;;;;;15.30;97.67;100916.84;6079453;19;20506;-72
2023/08/26 03:25:45;;;;;;;9.45;3.10;;;;;;;15.27;96.98;100922.28;6093389;19;20015;-71
2023/08/26 03:27:47;;;;;;;5.88;3.00;;;;;;;15.25;97.48;100919.75;6096984;19;20199;-71
2023/08/26 03:29:52;;;;;;;4.70;2.88;;;;;;;15.21;97.20;100925.31;6075970;19;20030;-71
2023/08/26 03:31:59;;;;;;;6.90;2.78;;;;;;;15.12;97.84;100924.06;6076530;19;20013;-71
2023/08/26 03:34:01;;;;;;;8.68;3.50;;;;;;;15.11;97.69;100920.56;6074568;19;20358;-72
2023/08/26 03:36:07;;;;;;;12.25;3.72;;;;;;;15.13;97.39;100923.09;6088204;19;20024;-72
2023/08/26 03:38:13;;;;;;;7.05;3.22;;;;;;;15.06;97.53;100919.97;6078846;19;20527;-72
2023/08/26 03:40:22;;;;;;;8.77;3.15;;;;;;;15.01;97.36;100919.38;6096314;19;20010;-72
2023/08/26 03:42:29;;;;;;;7.13;3.38;;;;;;;14.98;97.48;100923.97;6095683;19;21245;-72
2023/08/26 03:44:34;;;;;;;9.27;3.85;;;;;;;14.93;98.08;100930.41;6096761;19;20106;-72
2023/08/26 03:46:39;;;;;;;9.18;3.42;;;;;;;14.98;98.01;100934.56;6099405;19;20114;-72
2023/08/26 03:48:44;;;;;;;6.10;2.97;;;;;;;14.95;97.94;100938.25;6093445;19;20013;-72
2023/08/26 03:50:52;;;;;;;10.00;3.50;;;;;;;14.94;98.05;100933.91;6071746;19;20002;-72
2023/08/26 03:52:59;;;;;;;8.32;3.55;;;;;;;14.88;98.38;100935.09;6090453;19;20030;-74
2023/08/26 03:55:05;;;;;;;9.90;3.70;;;;;;;14.84;97.92;100928.28;6094628;19;20021;-71
2023/08/26 03:57:12;;;;;;;7.70;3.65;;;;;;;14.80;98.50;100928.56;6093323;19;20546;-71
2023/08/26 03:59:17;;;;;;;10.75;3.78;;;;;;;14.79;98.68;100927.69;6099044;19;20038;-71
2023/08/26 04:01:22;;;;;;;8.32;3.80;;;;;;;14.72;98.60;100934.28;6095920;19;20386;-71
2023/08/26 04:03:30;;;;;;;10.48;3.83;;;;;;;14.68;98.79;100936.22;6096702;19;20018;-71
2023/08/26 04:05:36;;;;;;;7.97;4.20;;;;;;;14.60;99.67;100937.59;6099138;19;20013;-72
2023/08/26 04:07:41;;;;;;;8.38;3.40;;;;;;;14.66;99.23;100940.72;6094710;19;20006;-71
2023/08/26 04:09:46;;;;;;;10.77;3.83;;;;;;;14.59;99.30;100942.03;6100337;19;20007;-71
2023/08/26 04:11:51;;;;;;;10.00;3.78;;;;;;;14.60;98.87;100938.44;6092286;19;20018;-71
2023/08/26 04:14:02;;;;;;;9.52;4.07;;;;;;;14.55;99.38;100934.34;6089407;19;20658;-72
2023/08/26 04:16:06;;;;;;;12.52;4.07;;;;;;;14.54;99.29;100940.59;6090278;19;20002;-72
2023/08/26 04:18:10;;;;;;;7.65;3.92;;;;;;;14.55;99.50;100947.56;6080679;19;20039;-72
2023/08/26 04:20:15;;;;;;;11.55;3.80;;;;;;;14.50;100.00;100953.94;6082141;19;20010;-72
2023/08/26 04:22:20;;;;;;;10.52;3.85;;;;;;;14.47;99.74;100954.09;6081883;19;20013;-72
2023/08/26 04:24:33;;;;;;;9.88;3.35;;;;;;;14.51;100.00;100954.81;6075407;19;20550;-74
2023/08/26 04:26:41;;;;;;;9.90;3.92;;;;;;;14.54;99.98;100953.81;6072659;19;19998;-72
2023/08/26 04:28:48;;;;;;;11.30;3.80;;;;;;;14.48;100.00;100958.47;6097223;19;20021;-72
2023/08/26 04:31:03;;;;;;;10.93;3.67;;;;;;;14.50;100.00;100953.94;6082065;19;20003;-72
2023/08/26 04:33:08;;;;;;;9.35;3.67;;;;;;;14.44;100.00;100943.69;6086648;19;20035;-74
2023/08/26 04:35:18;;;;;;;8.77;3.63;;;;;;;14.41;99.94;100954.44;6072806;19;20991;-71
2023/08/26 04:37:25;;;;;;;9.55;3.85;;;;;;;14.36;100.00;100950.34;6082876;19;20175;-73
2023/08/26 04:39:31;;;;;;;7.95;3.63;;;;;;;14.35;100.00;100953.91;6064423;19;20042;-72
2023/08/26 04:41:36;;;;;;;7.10;3.55;;;;;;;14.42;100.00;100956.13;6075102;19;20285;-72
2023/08/26 04:43:44;;;;;;;12.32;4.18;;;;;;;14.44;100.00;100958.72;6064600;19;20724;-73
2023/08/26 04:45:52;;;;;;;7.47;3.75;;;;;;;14.41;100.00;100957.09;6096623;19;20501;-71
2023/08/26 04:48:01;;;;;;;11.25;4.30;;;;;;;14.40;100.00;100959.81;6083414;19;20003;-72
2023/08/26 04:50:08;;;;;;;7.53;3.30;;;;;;;14.35;100.00;100953.91;6077422;19;20114;-72
2023/08/26 04:52:15;;;;;;;7.72;3.22;;;;;;;14.35;100.00;100959.19;6080617;19;20015;-71
2023/08/26 04:54:21;;;;;;;8.57;4.03;;;;;;;14.33;100.00;100961.94;6081014;19;20015;-71
2023/08/26 04:58:55;;;;;;;7.70;3.42;;;;;;;14.33;100.00;100967.22;6070284;19;20006;-73
2023/08/26 05:01:03;;;;;;;8.95;3.72;;;;;;;14.38;100.00;100977.56;6080284;19;20010;-72
2023/08/26 05:03:12;;;;;;;9.55;3.65;;;;;;;14.35;100.00;100981.22;6035887;19;20097;-71
2023/08/26 05:05:33;;;;;;;7.60;3.50;;;;;;;14.41;100.00;100972.94;6078585;19;20281;-72
2023/08/26 05:07:51;;;;;;;7.25;3.42;;;;;;;14.44;100.00;100974.56;6081510;19;20227;-71
2023/08/26 05:10:00;;;;;;;8.85;3.17;;;;;;;14.48;100.00;100974.34;6083049;19;20523;-73
2023/08/26 05:12:11;;;;;;;8.65;3.22;;;;;;;14.49;100.00;100973.38;6065048;19;20010;-72
2023/08/26 05:14:46;;;;;;;8.02;3.38;;;;;;;14.55;99.67;100976.66;6048613;19;20074;-72
2023/08/26 05:16:54;;;;;;;7.80;3.35;;;;;;;14.60;99.39;100980.75;6080304;19;20063;-72
2023/08/26 05:19:16;;;;;;;8.45;3.08;;;;;;;14.63;98.98;100977.09;6082848;19;20003;-73
2023/08/26 05:21:31;;;;;;;10.68;3.20;;;;;;;14.61;99.22;100978.97;6081560;19;20023;-73
2023/08/26 05:23:38;;;;;;;7.68;2.78;;;;;;;14.67;99.28;100981.28;6060576;19;20410;-72
2023/08/26 05:25:50;;;;;;;7.45;3.63;;;;;;;14.72;98.84;100981.88;6075708;19;20006;-72
2023/08/26 05:27:55;;;;;;;9.68;3.20;;;;;;;14.75;98.68;100975.56;6069446;19;20010;-73
2023/08/26 05:30:03;;;;;;;11.75;3.20;;;;;;;14.82;98.21;100982.22;6057441;19;20006;-71
2023/08/26 05:32:06;;;;;;;9.18;3.13;;;;;;;14.87;97.93;100983.66;6060213;19;20006;-73
2023/08/26 05:34:11;;;;;;;7.32;2.92;;;;;;;14.95;97.26;100980.56;6079838;19;20006;-72
2023/08/26 05:36:21;;;;;;;9.10;2.92;;;;;;;15.05;97.36;100980.91;6088734;19;20014;-72
2023/08/26 05:38:26;;;;;;;5.25;3.25;;;;;;;15.09;96.51;100982.47;6094407;19;20003;-72
2023/08/26 05:40:32;;;;;;;8.63;3.47;;;;;;;15.19;96.46;100977.47;6072822;19;20358;-73
2023/08/26 05:42:40;;;;;;;8.70;3.00;;;;;;;15.23;96.04;100977.22;6071105;19;20014;-73
2023/08/26 05:44:49;;;;;;;7.18;3.33;;;;;;;15.42;95.37;100976.16;6059669;19;20040;-72
2023/08/26 05:46:56;;;;;;;6.95;2.95;;;;;;;15.41;95.15;100979.75;6079100;19;21579;-73
2023/08/26 05:49:01;;;;;;;10.18;3.00;;;;;;;15.46;94.89;100969.75;6075766;19;20501;-72
2023/08/26 05:51:03;;;;;;;7.82;2.65;;;;;;;15.65;93.82;100965.03;6091659;19;20005;-72
2023/08/26 05:53:11;;;;;;;;;;;;;;;15.75;93.14;100966.25;6088782;19;20018;-71
2023/08/26 05:55:16;;;;;;;5.95;3.17;;;;;;;15.86;92.84;100964.75;6081070;19;20459;-73
2023/08/26 05:57:25;;;;;;;6.13;2.95;;;;;;;15.82;92.67;100957.91;6062077;19;20579;-72
2023/08/26 05:59:33;;;;;;;13.35;3.80;;;;;;;15.87;92.33;100951.38;6060753;19;20014;-73
2023/08/26 06:01:44;;;;;;;7.25;3.00;;;;;;;15.88;91.88;100955.75;6061827;19;20092;-73
2023/08/26 06:03:50;;;;;;;6.95;2.92;;;;;;;16.15;91.42;100955.00;6065050;19;19999;-72
2023/08/26 06:05:55;;;;;;;7.68;3.42;;;;;;;16.13;91.22;100954.22;6079605;19;20014;-73
2023/08/26 06:08:03;;;;;;;5.78;3.15;;;;;;;16.06;91.27;100952.91;6052860;19;20484;-73
2023/08/26 06:10:13;;;;;;;6.97;3.20;;;;;;;16.15;91.47;100953.19;6046514;19;20376;-71
2023/08/26 06:12:18;;;;;;;6.38;3.03;;;;;;;16.39;89.92;100942.00;6079125;19;20006;-73
2023/08/26 06:14:34;;;;;;;8.00;3.42;;;;;;;16.56;89.19;100948.88;6069903;19;20006;-72
2023/08/26 06:16:38;;;;;;;7.03;3.22;;;;;;;16.52;89.19;100952.69;6086220;19;20031;-71
2023/08/26 06:18:48;;;;;;;7.00;3.13;;;;;;;16.70;88.20;100955.97;6072591;19;20013;-73
2023/08/26 06:20:55;;;;;;;8.13;2.75;;;;;;;16.98;86.88;100952.41;6078514;19;20009;-72
2023/08/26 06:23:13;;;;;;;8.15;3.30;;;;;;;17.17;86.74;100957.34;6048913;19;20123;-72
2023/08/26 06:25:26;;;;;;;9.27;3.05;;;;;;;17.08;86.36;100962.31;6073786;19;20023;-73
2023/08/26 06:27:31;;;;;;;8.00;2.72;;;;;;;17.27;85.64;100972.59;6086617;19;21625;-72
2023/08/26 06:29:34;;;;;;;6.78;3.00;;;;;;;16.77;87.21;100975.84;6061376;19;20007;-73
2023/08/26 06:31:39;;;;;;;9.40;3.13;;;;;;;17.27;86.37;100985.88;6076284;19;20029;-73
2023/08/26 06:33:47;;;;;;;5.22;2.90;;;;;;;17.55;85.42;100989.31;6068440;19;20011;-72
2023/08/26 06:35:54;;;;;;;5.18;2.85;;;;;;;17.30;84.51;101006.91;6073437;19;21346;-73
2023/08/26 06:38:00;;;;;;;6.53;2.60;;;;;;;17.04;86.60;101003.31;6062209;19;20336;-73
2023/08/26 06:40:19;;;;;;;6.45;3.28;;;;;;;16.95;87.19;101009.19;6069500;19;20006;-73
2023/08/26 06:42:34;;;;;;;5.85;3.00;;;;;;;16.89;87.83;101015.75;6051935;19;20283;-72
2023/08/26 06:44:41;;;;;;;9.85;3.20;;;;;;;16.83;87.82;101020.63;6073698;19;20007;-71
2023/08/26 06:46:49;;;;;;;5.93;2.50;;;;;;;16.76;87.91;101017.44;6064227;19;20031;-73
2023/08/26 06:48:58;;;;;;;7.45;3.00;;;;;;;16.53;87.71;101002.13;6059148;19;20030;-72
2023/08/26 06:51:05;;;;;;;8.73;5.22;;;;;;;16.52;87.64;101000.44;6041370;19;20006;-73
2023/08/26 06:53:10;;;;;;;9.55;4.22;;;;;;;16.44;87.85;101003.56;6080817;19;20019;-72
2023/08/26 06:55:18;;;;;;;7.68;4.40;;;;;;;16.56;86.95;101004.59;6090715;19;20038;-72
2023/08/26 06:57:27;;;;;;;9.77;5.15;;;;;;;16.42;86.51;101008.13;6082724;19;20400;-72
2023/08/26 06:59:45;;;;;;;8.27;4.93;;;;;;;16.39;86.72;101008.31;6070749;19;20011;-72
2023/08/26 07:02:00;;;;;;;7.70;5.00;;;;;;;16.48;86.75;100997.09;6076043;19;20021;-73
2023/08/26 07:04:06;;;;;;;6.40;3.95;;;;;;;16.68;86.29;101002.03;6072858;19;20006;-72
2023/08/26 07:06:15;;;;;;;7.63;3.72;;;;;;;16.73;86.32;100996.44;6069255;19;20006;-73
2023/08/26 07:08:21;;;;;;;9.93;4.40;;;;;;;16.95;85.58;101001.22;6076474;19;20015;-74
2023/08/26 07:10:28;;;;;;;6.93;3.92;;;;;;;17.27;83.95;100996.50;6071108;19;20006;-71
2023/08/26 07:12:38;;;;;;;6.68;4.00;;;;;;;17.59;81.73;100989.94;6074741;19;20010;-71
2023/08/26 07:14:50;;;;;;;7.55;3.67;;;;;;;17.94;80.71;100995.56;6074550;19;20014;-72
2023/08/26 07:16:58;;;;;;;8.90;4.68;;;;;;;18.03;79.74;100999.41;6084796;19;20044;-73
2023/08/26 07:19:05;;;;;;;6.80;4.00;;;;;;;18.00;79.90;100997.78;6070237;19;20503;-71
2023/08/26 07:21:13;;;;;;;7.22;4.00;;;;;;;18.17;79.19;101002.81;6076063;19;20007;-73
2023/08/26 07:23:20;;;;;;;6.63;4.15;;;;;;;18.13;79.50;101003.13;6080673;19;21513;-72
2023/08/26 07:25:33;;;;;;;7.60;4.15;;;;;;;18.07;79.51;101006.22;6059751;19;20006;-73
2023/08/26 07:27:40;;;;;;;6.03;3.72;;;;;;;18.39;78.26;100999.47;6061303;19;20518;-72
2023/08/26 07:29:55;;;;;;;7.60;4.43;;;;;;;18.76;78.56;101007.53;6079231;19;20010;-71
2023/08/26 07:32:00;;;;;;;6.18;3.42;;;;;;;18.74;76.77;100998.75;6081589;19;20007;-72
2023/08/26 07:34:07;;;;;;;6.95;3.70;;;;;;;19.22;75.89;100998.84;6086331;19;20933;-73
2023/08/26 07:36:12;;;;;;;6.43;3.53;;;;;;;19.08;75.16;101001.66;6087885;19;20051;-73
2023/08/26 07:38:17;;;;;;;4.57;2.95;;;;;;;18.82;75.78;100999.09;6066666;19;20012;-71
2023/08/26 07:40:28;;;;;;;5.18;3.15;;;;;;;18.65;76.72;101002.94;6068846;19;20003;-73
2023/08/26 07:42:36;;;;;;;5.50;3.05;;;;;;;19.08;75.38;100999.84;6085292;19;20018;-72
2023/08/26 07:44:43;;;;;;;4.68;3.30;;;;;;;19.00;75.60;100996.06;6089916;19;20020;-73
2023/08/26 07:46:51;;;;;;;6.68;3.10;;;;;;;19.47;74.29;100995.19;6086847;19;20049;-73
2023/08/26 07:48:59;;;;;;;5.53;3.35;;;;;;;19.72;71.60;100990.66;6076776;19;20151;-73
2023/08/26 07:51:04;;;;;;;6.05;2.85;;;;;;;19.74;72.35;100992.25;6097786;19;20504;-72
2023/08/26 07:53:12;;;;;;;4.18;2.15;;;;;;;19.74;71.60;100996.75;6095637;19;20006;-73
2023/08/26 07:55:20;;;;;;;3.45;2.40;;;;;;;19.94;69.31;100985.38;6092964;19;20015;-71
2023/08/26 07:57:25;;;;;;;2.75;2.05;;;;;;;19.95;70.11;100989.75;6085913;19;20687;-71
2023/08/26 07:59:36;;;;;;;4.85;2.25;;;;;;;20.01;68.07;100996.44;6087792;19;20016;-71
2023/08/26 08:01:41;;;;;;;3.13;1.90;;;;;;;20.15;67.43;100995.38;6086248;19;20446;-71
2023/08/26 08:03:49;;;;;;;3.30;1.88;;;;;;;20.15;66.82;101003.38;6083891;19;20378;-70
2023/08/26 08:05:54;;;;;;;2.45;2.00;;;;;;;19.90;67.12;101007.91;6099405;19;20050;-71
2023/08/26 08:08:00;;;;;;;6.18;2.10;;;;;;;19.78;67.84;101003.56;6094700;19;20526;-71
2023/08/26 08:10:05;;;;;;;2.55;1.98;;;;;;;20.55;67.30;101003.75;6098520;19;20042;-72
2023/08/26 08:12:12;;;;;;;3.65;2.22;;;;;;;20.53;65.56;101002.97;6097755;19;20015;-72
2023/08/26 08:14:17;;;;;;;3.60;2.30;;;;;;;20.71;65.32;100999.84;6092079;19;20653;-71
2023/08/26 08:16:22;;;;;;;4.38;2.20;;;;;;;20.38;64.81;101001.56;6084617;19;20017;-71
2023/08/26 08:18:32;;;;;;;4.57;2.20;;;;;;;19.63;66.93;101012.69;6084261;19;20007;-71
2023/08/26 08:20:39;;;;;;;4.53;2.35;;;;;;;19.35;68.48;101016.56;6088341;19;20476;-71
2023/08/26 08:22:47;;;;;;;4.80;2.80;;;;;;;18.99;69.48;101013.00;6072224;19;20357;-72
2023/08/26 08:24:53;;;;;;;5.75;3.30;;;;;;;18.75;70.65;101015.63;6096913;19;20006;-73
2023/08/26 08:27:00;;;;;;;8.00;3.42;;;;;;;18.91;70.79;101015.38;6096258;19;19998;-71
2023/08/26 08:29:05;;;;;;;5.97;3.05;;;;;;;19.42;69.00;101013.31;6088756;19;20007;-71
2023/08/26 08:31:10;;;;;;;5.57;3.45;;;;;;;19.61;68.03;101007.44;6088161;19;20043;-72
2023/08/26 08:33:15;;;;;;;7.45;3.58;;;;;;;19.73;67.73;101014.56;6088011;19;20032;-71
2023/08/26 08:35:20;;;;;;;9.13;4.10;;;;;;;19.44;68.86;101023.88;6093216;19;20046;-74
2023/08/26 08:37:34;;;;;;;6.15;3.55;;;;;;;19.14;70.03;101019.00;6077314;19;20054;-74
2023/08/26 08:39:39;;;;;;;6.45;4.15;;;;;;;19.22;70.72;101017.50;6085298;19;20010;-74
2023/08/26 08:41:44;;;;;;;7.72;4.35;;;;;;;19.83;70.05;101021.88;6084102;19;20606;-72
2023/08/26 08:44:01;;;;;;;7.95;4.18;;;;;;;20.55;67.63;101014.44;6094387;19;20007;-74
2023/08/26 08:46:07;;;;;;;6.88;3.95;;;;;;;20.55;66.02;101022.44;6087564;19;20345;-73
2023/08/26 08:48:13;;;;;;;7.45;4.35;;;;;;;20.13;68.19;101024.81;6085282;19;20006;-73
2023/08/26 08:50:18;;;;;;;6.00;3.88;;;;;;;19.94;68.24;101030.72;6094082;19;20018;-72
2023/08/26 08:52:28;;;;;;;6.72;4.28;;;;;;;19.92;68.04;101024.66;6083264;19;20010;-73
2023/08/26 08:54:37;;;;;;;5.97;4.30;;;;;;;20.67;65.29;101033.09;6067743;19;20010;-74
2023/08/26 08:56:43;;;;;;;6.82;3.88;;;;;;;19.98;68.82;101028.66;6078166;19;20013;-73
2023/08/26 08:58:51;;;;;;;6.75;3.95;;;;;;;20.27;67.06;101036.22;6081857;19;20013;-73
2023/08/26 09:01:00;;;;;;;5.43;4.05;;;;;;;20.79;64.94;101035.66;6080248;19;20051;-73
2023/08/26 09:03:10;;;;;;;5.82;4.18;;;;;;;20.47;65.98;101043.53;6082537;19;20015;-72
2023/08/26 09:05:16;;;;;;;6.82;4.00;;;;;;;20.15;67.13;101038.06;6083898;19;20006;-72
2023/08/26 09:07:20;;;;;;;7.25;4.03;;;;;;;20.20;66.99;101038.53;6084709;19;20089;-72
2023/08/26 09:09:28;;;;;;;5.07;3.33;;;;;;;21.03;65.76;101040.81;6088089;19;20396;-73
2023/08/26 09:11:46;;;;;;;6.05;4.32;;;;;;;20.27;65.95;101041.56;6081281;19;20020;-74
2023/08/26 09:13:56;;;;;;;6.57;4.00;;;;;;;19.64;67.81;101049.03;6092205;19;20279;-74
2023/08/26 09:16:02;;;;;;;5.85;4.10;;;;;;;19.63;68.81;101042.84;6082589;19;20618;-73
2023/08/26 09:18:11;;;;;;;6.60;4.60;;;;;;;19.74;68.86;101047.41;6078572;19;20403;-73
2023/08/26 09:20:17;;;;;;;4.20;3.35;;;;;;;20.06;66.92;101044.94;6093019;19;20136;-73
2023/08/26 09:22:22;;;;;;;4.63;3.10;;;;;;;19.95;66.16;101048.44;6077956;19;20036;-74
2023/08/26 09:24:32;;;;;;;3.63;2.22;;;;;;;19.61;67.69;101050.09;6081558;19;20013;-75
2023/08/26 09:26:37;;;;;;;4.43;2.40;;;;;;;20.35;65.71;101044.47;6076251;19;20007;-74
2023/08/26 09:28:47;;;;;;;4.47;2.72;;;;;;;20.53;64.55;101055.53;6079734;19;20491;-74
2023/08/26 09:31:06;;;;;;;4.05;2.53;;;;;;;20.92;63.71;101048.03;6072167;19;20010;-74
2023/08/26 09:33:17;;;;;;;2.50;2.30;;;;;;;20.77;63.36;101058.09;6070810;19;20006;-74
2023/08/26 09:35:23;;;;;;;3.63;2.55;;;;;;;20.45;64.53;101047.28;6085187;19;20451;-76
2023/08/26 09:37:58;;;;;;;3.20;2.40;;;;;;;21.16;63.88;101051.38;6074719;19;20014;-74
2023/08/26 09:40:21;;;;;;;4.97;2.30;;;;;;;20.97;63.20;101051.19;6078712;19;21601;-73
2023/08/26 09:42:29;;;;;;;3.90;2.20;;;;;;;20.64;63.01;101044.88;6081718;19;20010;-74
2023/08/26 09:44:36;;;;;;;2.05;1.65;;;;;;;20.61;63.84;101037.13;6093448;19;20011;-73
2023/08/26 09:46:44;;;;;;;4.25;2.08;;;;;;;20.34;63.63;101042.78;6078184;19;20813;-73
2023/08/26 09:48:52;;;;;;;2.85;1.98;;;;;;;20.09;64.44;101039.38;6086422;19;20364;-73
2023/08/26 09:51:00;;;;;;;2.20;1.98;;;;;;;20.92;62.57;101042.69;6076354;19;20069;-71
2023/08/26 09:53:07;;;;;;;3.20;2.08;;;;;;;20.88;62.53;101036.75;6074528;19;20062;-71
2023/08/26 09:55:12;;;;;;;6.82;2.50;;;;;;;21.21;62.54;101045.66;6080877;19;20006;-71
2023/08/26 09:57:20;;;;;;;6.53;2.17;;;;;;;21.38;61.64;101038.94;6078457;19;20028;-72